Time;durP1;ratioP1;P1;durP2;ratioP2;P2;SDS_P1;SDS_P2;PMS_P1;PMS_P2;Temp;Humidity;BMP_temperature;BMP_pressure;BME280_temperature;BME280_humidity;BME280_pressure;Samples;Min_cycle;Max_cycle;Signal;HPM_P1;HPM_P2
2023/03/28 00:00:48;;;;;;;6.33;5.07;;;1.20;99.90;;;1.86;95.26;98707.41;5224679;28;20192;-64
2023/03/28 00:03:21;;;;;;;5.70;5.20;;;1.10;99.90;;;1.79;95.24;98708.41;5235083;28;20686;-64
2023/03/28 00:05:59;;;;;;;5.23;4.87;;;1.10;99.90;;;1.85;96.31;98718.22;5229407;28;20661;-65
2023/03/28 00:08:33;;;;;;;7.80;4.67;;;1.20;99.90;;;1.86;96.40;98714.97;5239087;28;20192;-65
2023/03/28 00:11:10;;;;;;;5.40;5.00;;;1.20;99.90;;;1.75;96.67;98722.31;5223753;28;20710;-63
2023/03/28 00:13:45;;;;;;;5.83;4.80;;;1.10;99.90;;;1.73;97.26;98718.75;5232401;28;20264;-64
2023/03/28 00:16:18;;;;;;;5.37;4.90;;;1.10;99.90;;;1.74;96.99;98727.19;5227733;28;20195;-63
2023/03/28 00:18:52;;;;;;;5.93;5.43;;;1.10;99.90;;;1.71;97.55;98732.78;5240712;28;20208;-64
2023/03/28 00:21:28;;;;;;;5.47;4.97;;;1.00;99.90;;;1.72;97.32;98733.72;5231496;28;20204;-62
2023/03/28 00:24:04;;;;;;;5.23;4.83;;;1.00;99.90;;;1.68;98.16;98740.03;5228298;28;20666;-65
2023/03/28 00:26:37;;;;;;;5.53;5.03;;;0.90;99.90;;;1.62;97.45;98739.38;5234498;28;20560;-65
2023/03/28 00:29:19;;;;;;;5.63;5.20;;;0.90;99.90;;;1.67;97.83;98739.88;5228316;28;20230;-65
2023/03/28 00:31:53;;;;;;;6.00;5.03;;;0.90;99.90;;;1.62;97.65;98748.59;5226676;28;20493;-63
2023/03/28 00:34:26;;;;;;;5.27;4.80;;;0.80;99.90;;;1.59;97.34;98749.16;5244373;28;20722;-63
2023/03/28 00:37:01;;;;;;;6.17;4.77;;;0.80;99.90;;;1.58;98.09;98758.34;5237833;28;20244;-65
2023/03/28 00:39:34;;;;;;;5.17;4.77;;;0.80;99.90;;;1.47;98.46;98750.38;5235604;28;20567;-64
2023/03/28 00:42:14;;;;;;;5.23;4.83;;;0.70;99.90;;;1.45;98.25;98754.34;5239992;28;20478;-65
2023/03/28 00:44:52;;;;;;;5.27;4.73;;;0.80;99.90;;;1.42;98.50;98749.00;5230352;28;20267;-63
2023/03/28 00:47:45;;;;;;;5.17;4.77;;;0.70;99.90;;;1.41;98.48;98757.28;5234936;28;20202;-64
2023/03/28 00:50:24;;;;;;;5.60;5.17;;;0.70;99.90;;;1.29;98.62;98760.28;5229633;28;20299;-61
2023/03/28 00:53:03;;;;;;;5.90;5.40;;;0.60;99.90;;;1.27;98.68;98764.25;5234160;28;20205;-63
2023/03/28 00:55:40;;;;;;;5.57;5.17;;;0.60;99.90;;;1.30;98.80;98767.09;5240268;28;20225;-63
2023/03/28 00:58:18;;;;;;;5.60;5.10;;;0.60;99.90;;;1.32;98.89;98768.16;5237291;28;20201;-62
2023/03/28 01:00:54;;;;;;;5.13;4.73;;;0.60;99.90;;;1.30;98.69;98761.16;5229574;28;20198;-64
2023/03/28 01:03:32;;;;;;;6.73;5.37;;;0.60;99.90;;;1.28;99.30;98766.03;5229611;28;20197;-64
2023/03/28 01:06:09;;;;;;;6.00;5.50;;;0.60;99.90;;;1.26;99.72;98765.00;5231566;28;20204;-63
2023/03/28 01:08:45;;;;;;;5.87;5.13;;;0.60;99.90;;;1.23;99.04;98768.78;5233879;28;20233;-63
2023/03/28 01:11:19;;;;;;;5.63;5.03;;;0.50;99.90;;;1.18;99.70;98777.50;5235681;28;20267;-63
2023/03/28 01:13:54;;;;;;;5.80;5.30;;;0.50;99.90;;;1.12;99.69;98772.69;5232735;28;20224;-64
2023/03/28 01:16:30;;;;;;;5.73;5.23;;;0.50;99.90;;;1.16;99.71;98771.38;5237460;28;20208;-62
2023/03/28 01:19:05;;;;;;;5.77;5.13;;;0.50;99.90;;;1.15;99.70;98775.53;5238745;28;20205;-62
2023/03/28 01:22:15;;;;;;;5.43;5.03;;;0.60;99.90;;;1.21;99.85;98781.22;5234260;28;20200;-62
2023/03/28 01:25:28;;;;;;;6.63;5.70;;;0.60;99.90;;;1.22;99.98;98785.50;5229535;28;20248;-64
2023/03/28 01:28:05;;;;;;;6.93;6.03;;;0.60;99.90;;;1.30;99.60;98784.72;5230598;28;20201;-64
2023/03/28 01:31:10;;;;;;;6.30;5.80;;;0.60;99.90;;;1.31;99.36;98781.47;5236842;28;20229;-63
2023/03/28 01:34:22;;;;;;;6.90;5.40;;;0.60;99.90;;;1.22;99.71;98788.03;5239139;28;20741;-63
2023/03/28 01:37:13;;;;;;;6.20;5.70;;;0.60;99.90;;;1.16;99.88;98786.50;5242529;28;20227;-63
2023/03/28 01:40:10;;;;;;;6.17;4.90;;;0.50;99.90;;;1.10;99.60;98786.72;5234141;28;20235;-63
2023/03/28 01:42:53;;;;;;;6.13;5.53;;;0.50;99.90;;;1.08;99.69;98789.06;5230984;28;20193;-60
2023/03/28 01:45:39;;;;;;;6.03;5.53;;;0.40;99.90;;;1.09;99.81;98797.53;5232497;28;20221;-63
2023/03/28 01:48:22;;;;;;;5.37;4.87;;;0.40;99.90;;;1.09;99.98;98792.50;5233463;28;20201;-64
2023/03/28 01:51:04;;;;;;;5.07;4.77;;;0.40;99.90;;;1.03;99.58;98785.19;5230857;28;20209;-62
2023/03/28 01:53:44;;;;;;;5.60;5.10;;;0.40;99.90;;;0.99;99.86;98794.72;5234472;28;20271;-63
2023/03/28 01:56:25;;;;;;;5.47;4.97;;;0.30;99.90;;;0.96;100.00;98796.91;5230569;28;20225;-64
2023/03/28 01:59:07;;;;;;;5.40;5.00;;;0.30;99.90;;;0.85;99.50;98801.66;5230191;28;20204;-65
2023/03/28 02:01:49;;;;;;;5.40;4.90;;;0.20;99.90;;;0.85;99.81;98794.09;5240348;28;20192;-62
2023/03/28 02:04:25;;;;;;;6.17;5.70;;;0.20;99.90;;;0.84;100.00;98804.91;5236560;28;20216;-63
2023/03/28 02:06:59;;;;;;;6.20;5.50;;;0.20;99.90;;;0.81;99.63;98804.56;5231333;28;20235;-63
2023/03/28 02:09:35;;;;;;;6.10;5.50;;;0.20;99.90;;;0.82;99.69;98806.34;5227729;28;20211;-64
2023/03/28 02:12:15;;;;;;;5.73;5.20;;;0.20;99.90;;;0.82;99.44;98796.28;5231189;28;20314;-63
2023/03/28 02:14:51;;;;;;;5.63;5.23;;;0.10;99.90;;;0.86;99.28;98800.94;5225798;28;20709;-64
2023/03/28 02:17:27;;;;;;;5.60;5.20;;;0.10;99.90;;;0.79;99.04;98801.00;5234805;28;20192;-64
2023/03/28 02:20:07;;;;;;;5.87;5.40;;;0.10;99.90;;;0.76;99.34;98799.78;5237110;28;20232;-64
2023/03/28 02:22:46;;;;;;;7.03;5.40;;;0.10;99.90;;;0.65;99.08;98799.47;5228314;28;20597;-62
2023/03/28 02:25:21;;;;;;;5.57;5.07;;;0.00;99.90;;;0.70;99.30;98804.13;5234765;28;20259;-65
2023/03/28 02:27:57;;;;;;;6.30;5.77;;;0.10;99.90;;;0.73;99.61;98804.47;5235124;28;20206;-63
2023/03/28 02:30:30;;;;;;;6.20;5.70;;;0.10;99.90;;;0.72;100.00;98803.56;5227357;28;20232;-64
2023/03/28 02:33:08;;;;;;;6.47;5.90;;;0.10;99.90;;;0.81;100.00;98804.56;5238131;28;20234;-64
2023/03/28 02:35:53;;;;;;;8.13;5.43;;;0.20;99.90;;;0.86;100.00;98808.50;5231676;28;20631;-64
2023/03/28 02:38:37;;;;;;;6.67;6.07;;;0.20;99.90;;;0.87;100.00;98806.88;5231830;28;20200;-62
2023/03/28 02:41:23;;;;;;;5.67;5.10;;;0.20;99.90;;;0.84;100.00;98799.88;5240102;28;20662;-63
2023/03/28 02:44:20;;;;;;;5.73;5.27;;;0.20;99.90;;;0.83;100.00;98805.66;5233329;28;20230;-65
2023/03/28 02:47:03;;;;;;;5.37;5.07;;;0.20;99.90;;;0.80;100.00;98806.91;5229093;28;20198;-62
2023/03/28 02:49:49;;;;;;;5.67;5.27;;;0.10;99.90;;;0.77;100.00;98807.47;5230005;28;20693;-64
2023/03/28 02:52:34;;;;;;;5.53;5.03;;;0.10;99.90;;;0.79;100.00;98810.16;5239370;28;20764;-65
2023/03/28 02:55:16;;;;;;;6.70;5.47;;;0.10;99.90;;;0.83;100.00;98813.19;5233283;28;20233;-62
2023/03/28 02:57:56;;;;;;;5.03;4.63;;;0.20;99.90;;;0.83;100.00;98809.75;5234958;28;20620;-63
2023/03/28 03:00:29;;;;;;;5.93;5.33;;;0.10;99.90;;;0.70;100.00;98810.06;5227113;28;20209;-65
2023/03/28 03:03:04;;;;;;;6.07;5.57;;;0.00;99.90;;;0.66;100.00;98816.38;5230288;28;20227;-63
2023/03/28 03:05:37;;;;;;;5.07;4.73;;;0.00;99.90;;;0.61;100.00;98816.59;5235731;28;20226;-63
2023/03/28 03:08:11;;;;;;;5.67;5.27;;;-0.10;99.90;;;0.60;100.00;98812.25;5232395;28;20209;-63
2023/03/28 03:10:44;;;;;;;6.33;5.43;;;-0.10;99.90;;;0.60;100.00;98812.25;5236990;28;20208;-64
2023/03/28 03:13:19;;;;;;;6.33;5.83;;;-0.10;99.90;;;0.59;100.00;98818.03;5232575;28;20602;-62
2023/03/28 03:15:53;;;;;;;5.73;5.23;;;0.00;99.90;;;0.59;100.00;98813.00;5228898;28;20199;-61
2023/03/28 03:18:26;;;;;;;5.70;5.20;;;0.00;99.90;;;0.59;100.00;98811.38;5237326;28;20300;-62
2023/03/28 03:21:00;;;;;;;6.03;5.53;;;-0.10;99.90;;;0.58;100.00;98808.72;5229718;28;20205;-65
2023/03/28 03:23:33;;;;;;;5.27;4.87;;;-0.10;99.90;;;0.61;100.00;98811.56;5228722;28;20963;-63
2023/03/28 03:26:07;;;;;;;7.13;5.97;;;0.00;99.90;;;0.63;100.00;98802.53;5236259;28;20210;-64
2023/03/28 03:28:41;;;;;;;6.13;5.60;;;-0.10;99.90;;;0.58;100.00;98808.72;5236719;28;20200;-64
2023/03/28 03:31:16;;;;;;;6.30;5.80;;;-0.10;99.90;;;0.54;100.00;98819.13;5234751;28;20206;-65
2023/03/28 03:33:49;;;;;;;6.90;6.00;;;-0.10;99.90;;;0.45;100.00;98816.50;5238502;28;20609;-63
2023/03/28 03:36:22;;;;;;;7.27;6.67;;;-0.30;99.90;;;0.42;100.00;98816.16;5237303;28;20199;-64
2023/03/28 03:38:56;;;;;;;7.90;7.10;;;-0.20;99.90;;;0.42;100.00;98814.53;5236507;28;20222;-61
2023/03/28 03:41:29;;;;;;;7.80;7.10;;;-0.20;99.90;;;0.44;100.00;98817.25;5232149;28;20201;-64
2023/03/28 03:44:03;;;;;;;9.03;8.33;;;-0.20;99.90;;;0.40;100.00;98825.16;5228080;28;20224;-63
2023/03/28 03:46:36;;;;;;;9.83;8.83;;;-0.20;99.90;;;0.41;100.00;98820.31;5241036;28;20203;-65
2023/03/28 03:49:10;;;;;;;8.43;7.77;;;-0.20;99.90;;;0.42;100.00;98822.06;5235516;28;20291;-65
2023/03/28 03:51:43;;;;;;;7.47;6.97;;;-0.30;99.90;;;0.36;100.00;98826.44;5239955;28;20211;-63
2023/03/28 03:54:16;;;;;;;6.47;5.90;;;-0.30;99.90;;;0.35;100.00;98821.25;5235262;28;20314;-62
2023/03/28 03:56:49;;;;;;;7.37;5.77;;;-0.40;99.90;;;0.33;100.00;98822.69;5228239;28;20199;-64
2023/03/28 03:59:24;;;;;;;6.00;5.20;;;-0.30;99.90;;;0.28;100.00;98822.16;5225569;28;20200;-63
2023/03/28 04:01:58;;;;;;;6.67;6.00;;;-0.40;99.90;;;0.27;100.00;98822.91;5225473;28;20210;-63
2023/03/28 04:04:31;;;;;;;7.33;6.50;;;-0.40;99.90;;;0.23;100.00;98830.84;5225861;28;20867;-63
2023/03/28 04:07:04;;;;;;;7.30;6.60;;;-0.40;99.90;;;0.22;100.00;98824.88;5233842;28;20257;-63
2023/03/28 04:09:37;;;;;;;6.17;5.67;;;-0.40;99.90;;;0.20;100.00;98817.88;5230535;28;20196;-61
2023/03/28 04:12:12;;;;;;;6.20;5.70;;;-0.40;99.90;;;0.22;100.00;98826.50;5228623;28;20234;-62
2023/03/28 04:14:46;;;;;;;6.37;5.77;;;-0.40;99.90;;;0.22;100.00;98822.38;5235859;28;20227;-62
2023/03/28 04:17:20;;;;;;;6.20;5.80;;;-0.50;99.90;;;0.20;100.00;98825.44;5225950;28;20244;-63
2023/03/28 04:19:54;;;;;;;6.43;5.77;;;-0.50;99.90;;;0.17;100.00;98822.56;5230977;28;20574;-64
2023/03/28 04:22:28;;;;;;;6.20;5.70;;;-0.50;99.90;;;0.16;100.00;98823.31;5224850;28;20232;-65
2023/03/28 04:25:01;;;;;;;6.27;5.87;;;-0.50;99.90;;;0.09;100.00;98818.34;5232446;28;20259;-65
2023/03/28 04:27:35;;;;;;;6.23;5.63;;;-0.60;99.90;;;0.04;100.00;98825.34;5234869;28;20207;-64
2023/03/28 04:30:10;;;;;;;6.70;6.10;;;-0.60;99.90;;;0.02;100.00;98824.25;5231636;28;20303;-65
2023/03/28 04:32:43;;;;;;;6.47;5.97;;;-0.60;99.90;;;0.03;100.00;98827.66;5231980;28;20253;-63
2023/03/28 04:35:17;;;;;;;6.30;5.90;;;-0.70;99.90;;;-0.01;100.00;98831.47;5238177;28;20230;-62
2023/03/28 04:37:50;;;;;;;6.60;5.83;;;-0.70;99.90;;;-0.05;100.00;98830.22;5230081;28;20659;-65
2023/03/28 04:40:26;;;;;;;6.50;5.50;;;-0.70;99.90;;;-0.17;100.00;98832.94;5228391;28;20243;-63
2023/03/28 04:43:00;;;;;;;5.70;5.20;;;-0.80;99.90;;;-0.19;100.00;98840.31;5223706;28;20245;-65
2023/03/28 04:45:34;;;;;;;5.80;5.30;;;-0.80;99.90;;;-0.25;100.00;98844.66;5221903;28;20256;-63
2023/03/28 04:48:07;;;;;;;6.37;5.77;;;-0.90;99.90;;;-0.21;100.00;98849.28;5227007;28;20206;-63
2023/03/28 04:50:41;;;;;;;6.13;5.53;;;-0.80;99.90;;;-0.18;100.00;98854.66;5229320;28;20200;-65
2023/03/28 04:53:16;;;;;;;5.60;5.17;;;-0.80;99.90;;;-0.12;100.00;98855.34;5226760;28;20226;-62
2023/03/28 04:55:50;;;;;;;6.67;6.03;;;-0.80;99.90;;;-0.16;100.00;98865.78;5227577;28;20720;-65
2023/03/28 04:58:24;;;;;;;5.83;5.37;;;-0.80;99.90;;;-0.18;100.00;98857.19;5223111;28;20291;-63
2023/03/28 05:01:01;;;;;;;5.90;5.33;;;-0.80;99.90;;;-0.26;100.00;98863.84;5229851;28;20202;-65
2023/03/28 05:03:35;;;;;;;6.87;6.27;;;-0.90;99.90;;;-0.21;100.00;98871.91;5223122;28;20234;-64
2023/03/28 05:06:08;;;;;;;6.03;5.53;;;-0.90;99.90;;;-0.31;99.37;98869.06;5229153;28;20251;-63
2023/03/28 05:08:42;;;;;;;5.97;5.37;;;-1.00;99.90;;;-0.28;99.70;98871.94;5240682;28;20600;-64
2023/03/28 05:11:15;;;;;;;6.40;5.80;;;-0.90;99.90;;;-0.24;100.00;98869.03;5230266;28;20630;-66
2023/03/28 05:13:48;;;;;;;7.00;6.40;;;-0.90;99.90;;;-0.21;100.00;98871.91;5225403;28;20272;-65
2023/03/28 05:16:23;;;;;;;8.17;5.93;;;-0.90;99.90;;;-0.26;100.00;98872.97;5232857;28;20201;-64
2023/03/28 05:18:56;;;;;;;6.50;5.90;;;-0.90;99.90;;;-0.21;100.00;98876.03;5241160;28;20201;-64
2023/03/28 05:21:31;;;;;;;6.30;5.80;;;-0.80;99.90;;;-0.22;100.00;98877.66;5230637;28;20201;-64
2023/03/28 05:24:04;;;;;;;6.33;5.73;;;-0.90;99.90;;;-0.25;100.00;98887.34;5237323;28;20304;-64
2023/03/28 05:26:38;;;;;;;6.03;5.53;;;-0.90;99.90;;;-0.22;100.00;98889.31;5239090;28;20316;-64
2023/03/28 05:29:11;;;;;;;5.87;5.37;;;-0.90;99.90;;;-0.18;100.00;98884.81;5230212;28;20298;-63
2023/03/28 05:31:45;;;;;;;6.47;5.87;;;-0.80;99.90;;;-0.13;100.00;98885.34;5229775;28;20198;-63
2023/03/28 05:34:18;;;;;;;6.50;5.87;;;-0.80;99.90;;;-0.11;100.00;98891.44;5241162;28;20286;-65
2023/03/28 05:36:51;;;;;;;9.17;6.73;;;-0.80;99.90;;;-0.09;100.00;98895.91;5230907;28;20295;-63
2023/03/28 05:39:25;;;;;;;7.13;6.40;;;-0.80;99.90;;;-0.07;100.00;98896.09;5238142;28;20654;-65
2023/03/28 05:41:58;;;;;;;7.30;6.53;;;-0.80;99.90;;;-0.06;100.00;98893.78;5233586;28;20678;-63
2023/03/28 05:44:31;;;;;;;6.63;6.03;;;-0.80;99.90;;;-0.01;100.00;98906.84;5236039;28;20305;-63
2023/03/28 05:47:06;;;;;;;7.10;5.90;;;-0.70;99.90;;;0.05;100.00;98902.50;5235830;28;20207;-64
2023/03/28 05:49:39;;;;;;;6.97;6.37;;;-0.70;99.90;;;0.16;99.84;98908.75;5234381;28;20237;-65
2023/03/28 05:52:12;;;;;;;6.33;5.77;;;-0.70;99.90;;;0.25;99.82;98911.44;5231166;28;20230;-65
2023/03/28 05:54:45;;;;;;;7.23;6.60;;;-0.60;99.90;;;0.40;100.00;98911.56;5230181;28;20668;-65
2023/03/28 05:57:25;;;;;;;6.77;6.20;;;-0.50;99.90;;;0.79;99.56;98910.81;5237018;28;20212;-65
2023/03/28 05:59:58;;;;;;;6.53;5.93;;;-0.30;99.90;;;1.05;98.23;98918.72;5228660;28;20206;-65
2023/03/28 06:02:32;;;;;;;4.90;4.50;;;0.00;99.90;;;1.30;98.13;98914.78;5233552;28;20227;-63
2023/03/28 06:05:07;;;;;;;6.27;5.67;;;0.10;99.90;;;1.56;97.32;98915.09;5231280;28;20274;-64
2023/03/28 06:07:40;;;;;;;6.20;5.60;;;0.30;99.90;;;1.78;94.68;98915.78;5226964;28;20307;-65
2023/03/28 06:10:15;;;;;;;6.27;5.73;;;0.50;99.90;;;1.80;94.37;98920.28;5232742;28;20205;-64
2023/03/28 06:12:49;;;;;;;6.27;5.60;;;0.60;99.90;;;1.86;93.41;98924.16;5236632;28;20295;-64
2023/03/28 06:15:23;;;;;;;6.50;5.90;;;0.60;99.90;;;1.75;93.40;98916.34;5232058;28;20709;-63
2023/03/28 06:17:58;;;;;;;6.47;5.97;;;0.60;99.90;;;1.73;94.01;98922.84;5230946;28;20209;-65
2023/03/28 06:20:31;;;;;;;6.10;5.60;;;0.70;99.90;;;1.69;93.80;98922.34;5235986;28;20212;-63
2023/03/28 06:23:04;;;;;;;6.87;6.23;;;0.60;99.90;;;1.67;94.53;98923.81;5232658;28;20578;-65
2023/03/28 06:25:37;;;;;;;6.57;6.03;;;0.70;99.90;;;2.00;93.35;98927.47;5230214;28;20224;-64
2023/03/28 06:28:11;;;;;;;6.67;6.07;;;0.80;99.90;;;2.35;92.50;98922.75;5237028;28;20208;-63
2023/03/28 06:30:49;;;;;;;6.40;5.80;;;1.00;99.90;;;2.80;90.21;98927.38;5236195;28;20401;-65
2023/03/28 06:33:23;;;;;;;6.83;6.17;;;1.20;99.90;;;3.09;86.07;98931.31;5232311;28;20774;-65
2023/03/28 06:35:56;;;;;;;7.43;5.80;;;1.40;99.90;;;3.46;85.04;98929.09;5230510;28;20206;-65
2023/03/28 06:38:29;;;;;;;6.60;6.00;;;1.60;99.90;;;3.79;84.83;98926.56;5230920;28;20273;-64
2023/03/28 06:41:03;;;;;;;7.57;6.77;;;1.80;99.90;;;4.04;82.67;98929.91;5228806;28;20208;-65
2023/03/28 06:43:36;;;;;;;7.70;7.00;;;2.10;99.90;;;4.24;81.56;98934.41;5239694;28;20555;-65
2023/03/28 06:46:10;;;;;;;7.80;7.00;;;2.30;99.90;;;4.46;81.80;98943.38;5237673;28;20228;-65
2023/03/28 06:48:44;;;;;;;7.83;7.20;;;2.60;99.90;;;4.99;78.44;98940.84;5239772;28;20204;-65
2023/03/28 06:51:17;;;;;;;9.67;8.33;;;3.00;99.90;;;5.23;77.69;98942.25;5228290;28;20203;-64
2023/03/28 06:53:51;;;;;;;9.17;7.73;;;3.30;99.90;;;5.57;74.88;98946.34;5233785;28;20224;-66
2023/03/28 06:56:24;;;;;;;7.47;6.67;;;3.70;99.90;;;5.69;73.94;98944.06;5231747;28;20299;-65
2023/03/28 06:58:57;;;;;;;6.97;6.37;;;3.80;99.90;;;5.93;73.14;98942.94;5239677;28;20212;-65
2023/03/28 07:01:30;;;;;;;9.53;7.80;;;3.80;99.90;;;6.30;72.17;98943.03;5228472;28;20542;-65
2023/03/28 07:04:05;;;;;;;8.67;7.57;;;4.00;99.90;;;6.74;70.36;98947.78;5236552;28;20234;-65
2023/03/28 07:06:38;;;;;;;8.57;7.33;;;4.20;99.90;;;6.95;68.31;98936.09;5230709;28;20211;-65
2023/03/28 07:09:11;;;;;;;8.37;7.30;;;4.40;99.90;;;7.50;66.86;98935.84;5231393;28;20292;-63
2023/03/28 07:11:45;;;;;;;7.53;6.77;;;4.70;99.90;;;7.60;65.46;98942.59;5235873;28;20673;-64
2023/03/28 07:14:18;;;;;;;7.43;6.70;;;4.80;99.90;;;7.92;64.25;98942.78;5231899;28;20360;-66
2023/03/28 07:16:51;;;;;;;8.60;6.67;;;4.80;99.90;;;7.76;65.04;98944.81;5240549;28;20287;-65
2023/03/28 07:19:26;;;;;;;7.97;6.10;;;4.90;99.90;;;7.51;63.81;98940.16;5241063;28;20205;-66
2023/03/28 07:21:59;;;;;;;7.80;6.67;;;5.10;99.90;;;7.47;65.57;98945.75;5229155;28;20205;-65
2023/03/28 07:24:32;;;;;;;6.50;5.87;;;5.20;99.90;;;7.60;66.75;98942.59;5225327;28;20585;-66
2023/03/28 07:27:06;;;;;;;6.40;5.80;;;5.40;99.90;;;7.62;66.42;98959.78;5232188;28;20235;-66
2023/03/28 07:29:48;;;;;;;6.40;5.50;;;5.70;99.90;;;7.66;66.70;98954.19;5232901;28;20265;-62
2023/03/28 07:32:22;;;;;;;7.53;5.90;;;6.00;99.90;;;7.70;65.65;98963.00;5230889;28;20692;-66
2023/03/28 07:34:56;;;;;;;7.30;6.00;;;6.10;99.90;;;7.84;66.36;98961.59;5235672;28;20239;-66
2023/03/28 07:37:29;;;;;;;6.03;5.40;;;6.20;99.90;;;7.94;65.18;98971.81;5236855;28;20228;-66
2023/03/28 07:40:04;;;;;;;6.27;5.60;;;6.40;99.90;;;8.05;64.54;98971.06;5229257;28;20221;-65
2023/03/28 07:42:37;;;;;;;7.17;5.87;;;6.50;99.90;;;8.16;63.68;98976.19;5225685;28;20200;-66
2023/03/28 07:45:11;;;;;;;6.83;5.67;;;6.60;99.90;;;7.98;64.79;98966.22;5228208;28;20263;-66
2023/03/28 07:47:44;;;;;;;6.10;5.40;;;6.60;99.90;;;8.07;64.46;98974.66;5224717;28;20585;-65
2023/03/28 07:50:19;;;;;;;6.00;5.23;;;6.80;99.90;;;8.22;63.19;98976.72;5223368;28;20209;-63
2023/03/28 07:52:56;;;;;;;7.23;5.20;;;6.90;99.90;;;8.11;62.89;98983.44;5231492;28;20595;-65
2023/03/28 07:55:32;;;;;;;5.47;4.97;;;6.80;99.90;;;8.20;62.79;98974.00;5231732;28;20228;-63
2023/03/28 07:58:20;;;;;;;9.20;5.73;;;6.90;99.90;;;8.10;60.68;98974.91;5232057;28;20308;-65
2023/03/28 08:00:53;;;;;;;7.03;5.27;;;6.80;99.90;;;8.30;62.19;98985.88;5229236;28;20205;-63
2023/03/28 08:03:27;;;;;;;7.30;5.17;;;7.00;99.90;;;8.45;61.15;98978.66;5234577;28;20228;-64
2023/03/28 08:06:04;;;;;;;6.17;4.07;;;7.20;99.90;;;8.55;60.29;98974.44;5236015;28;20196;-65
2023/03/28 08:08:52;;;;;;;6.40;4.10;;;7.30;99.90;;;8.97;58.97;98973.63;5229113;28;20196;-65
2023/03/28 08:11:25;;;;;;;6.13;4.33;;;7.80;99.90;;;9.00;57.41;98968.78;5227371;28;20292;-65
2023/03/28 08:13:59;;;;;;;5.37;3.87;;;7.90;99.90;;;8.96;56.79;98970.97;5229239;28;20255;-65
2023/03/28 08:16:32;;;;;;;6.40;4.40;;;7.90;99.90;;;8.72;56.43;98977.50;5229828;28;20201;-66
2023/03/28 08:19:06;;;;;;;5.80;4.57;;;7.60;99.90;;;8.86;58.68;98982.06;5233545;28;20695;-64
2023/03/28 08:21:45;;;;;;;4.57;3.40;;;7.90;99.90;;;8.76;56.08;98979.53;5236786;28;20196;-65
2023/03/28 08:24:18;;;;;;;4.63;3.80;;;7.70;99.90;;;8.89;56.62;98973.78;5229026;28;20224;-65
2023/03/28 08:27:05;;;;;;;7.10;4.17;;;7.70;99.90;;;9.19;57.54;98980.47;5230166;28;20197;-64
2023/03/28 08:29:38;;;;;;;5.40;3.70;;;8.20;99.90;;;9.29;54.29;98970.22;5233682;28;20204;-65
2023/03/28 08:32:11;;;;;;;5.70;3.67;;;8.30;99.50;;;9.45;53.66;98973.22;5235544;28;20204;-64
2023/03/28 08:34:44;;;;;;;6.93;3.53;;;8.60;99.10;;;9.57;54.34;98982.63;5232882;28;20228;-64
2023/03/28 08:37:20;;;;;;;8.17;3.80;;;8.80;99.00;;;9.71;52.79;98987.16;5233166;28;20669;-64
2023/03/28 08:39:53;;;;;;;5.23;3.40;;;8.80;98.40;;;9.99;52.56;98992.78;5224366;28;20266;-66
2023/03/28 08:42:50;;;;;;;4.17;2.97;;;9.00;97.60;;;9.92;48.83;98983.72;5233433;28;20205;-66
2023/03/28 08:45:48;;;;;;;4.22;3.58;;;9.10;96.20;;;9.90;51.54;98985.28;5228213;28;20220;-65
2023/03/28 08:48:25;;;;;;;5.53;3.47;;;8.90;96.70;;;9.93;51.71;98980.41;5234957;28;20212;-66
2023/03/28 08:51:03;;;;;;;5.00;4.00;;;9.00;97.90;;;9.96;51.60;98987.41;5237665;28;20196;-64
2023/03/28 08:53:42;;;;;;;7.20;3.80;;;9.00;96.70;;;10.10;51.82;98983.34;5229750;28;20712;-64
2023/03/28 08:56:16;;;;;;;4.88;3.40;;;9.00;97.10;;;9.95;50.73;98989.84;5231602;28;20311;-65
2023/03/28 08:59:01;;;;;;;5.15;3.63;;;8.70;96.70;;;9.75;50.33;98986.63;5233147;28;20208;-66
2023/03/28 09:01:35;;;;;;;4.32;3.55;;;8.50;96.80;;;9.36;50.21;98990.38;5231660;28;20205;-66
2023/03/28 09:04:22;;;;;;;8.30;4.07;;;8.10;96.10;;;9.02;50.71;98997.84;5230009;28;20220;-65
2023/03/28 09:07:04;;;;;;;4.38;3.70;;;7.70;96.50;;;8.68;52.04;98998.41;5228379;28;20197;-62
2023/03/28 09:09:50;;;;;;;4.50;3.60;;;7.50;96.80;;;8.47;52.63;99000.97;5233761;28;20605;-64
2023/03/28 09:12:44;;;;;;;5.63;3.90;;;7.30;97.10;;;8.48;53.20;98999.31;5230972;28;20216;-65
2023/03/28 09:15:51;;;;;;;4.23;3.63;;;7.30;97.70;;;8.39;52.49;98999.44;5235647;28;20228;-63
2023/03/28 09:18:42;;;;;;;4.97;3.37;;;7.30;97.00;;;8.57;53.26;98998.41;5229542;28;20198;-65
2023/03/28 09:21:25;;;;;;;5.33;3.50;;;7.40;97.80;;;8.82;50.98;98990.25;5232817;28;20201;-63
2023/03/28 09:24:14;;;;;;;4.27;2.90;;;7.70;96.30;;;8.98;49.24;98990.69;5228954;28;20225;-64
2023/03/28 09:26:57;;;;;;;4.00;3.17;;;8.00;94.70;;;9.25;47.88;98986.06;5230210;28;20683;-66
2023/03/28 09:29:32;;;;;;;4.97;2.60;;;8.20;93.70;;;9.35;50.49;98980.91;5236804;28;20215;-63
2023/03/28 09:32:19;;;;;;;4.73;2.83;;;8.40;95.30;;;9.73;47.03;98987.25;5231293;28;20204;-65
2023/03/28 09:34:52;;;;;;;4.83;2.80;;;8.90;94.00;;;9.85;46.75;98978.03;5234593;28;20696;-64
2023/03/28 09:37:32;;;;;;;4.70;2.80;;;9.10;92.70;;;10.05;45.55;98974.47;5239498;28;20299;-65
2023/03/28 09:40:19;;;;;;;4.18;2.85;;;9.30;91.70;;;10.24;45.49;98975.09;5235805;28;20213;-65
2023/03/28 09:43:04;;;;;;;2.33;2.13;;;9.50;91.40;;;10.31;45.74;98961.16;5235713;28;20635;-65
2023/03/28 09:45:53;;;;;;;3.80;2.40;;;9.50;91.20;;;10.55;44.98;98972.31;5229038;28;20237;-66
2023/03/28 09:48:29;;;;;;;4.72;3.20;;;9.60;91.50;;;10.37;44.54;98962.50;5225496;28;20665;-65
2023/03/28 09:51:05;;;;;;;4.47;2.38;;;9.40;91.00;;;10.43;44.95;98966.31;5233502;28;20291;-66
2023/03/28 09:53:38;;;;;;;4.07;3.20;;;9.40;91.20;;;10.65;43.58;98964.59;5235818;28;20201;-64
2023/03/28 09:56:25;;;;;;;4.90;3.50;;;9.80;91.50;;;10.81;43.99;98962.38;5235371;28;20647;-65
2023/03/28 09:59:02;;;;;;;4.70;3.30;;;10.00;90.60;;;10.57;44.53;98970.78;5228593;28;20295;-64
2023/03/28 10:01:41;;;;;;;3.20;2.90;;;9.60;90.40;;;10.38;43.22;98966.81;5239202;28;20580;-65
2023/03/28 10:04:17;;;;;;;4.03;2.90;;;9.20;90.70;;;10.07;43.80;98975.47;5227500;28;20633;-62
2023/03/28 10:06:51;;;;;;;6.07;3.25;;;8.80;90.80;;;10.07;42.80;98961.03;5226898;28;20254;-65
2023/03/28 10:09:27;;;;;;;3.55;3.17;;;8.90;90.50;;;10.31;41.00;98956.06;5226017;28;20201;-66
2023/03/28 10:12:03;;;;;;;5.95;3.15;;;9.30;87.80;;;10.31;43.64;98962.03;5234361;28;20197;-64
2023/03/28 10:14:40;;;;;;;3.65;3.08;;;9.60;89.50;;;10.56;41.97;98958.78;5236602;28;20224;-62
2023/03/28 10:17:17;;;;;;;4.90;3.03;;;9.80;87.80;;;10.29;40.59;98949.94;5230111;28;20213;-63
2023/03/28 10:19:51;;;;;;;3.08;2.78;;;9.30;86.10;;;10.27;43.52;98957.50;5236204;28;20253;-65
2023/03/28 10:22:27;;;;;;;4.25;3.40;;;9.30;89.80;;;10.23;43.53;98959.66;5238328;28;20584;-65
2023/03/28 10:25:01;;;;;;;5.05;3.17;;;9.50;89.40;;;10.42;43.38;98954.31;5233274;28;20221;-65
2023/03/28 10:27:37;;;;;;;3.95;3.25;;;9.50;89.90;;;10.32;43.15;98953.59;5226215;28;20197;-63
2023/03/28 10:30:21;;;;;;;3.53;2.95;;;9.40;89.80;;;10.37;45.00;98944.63;5228283;28;20716;-63
2023/03/28 10:33:20;;;;;;;3.33;3.03;;;9.50;91.10;;;10.54;41.04;98950.09;5231000;28;20205;-66
2023/03/28 10:35:58;;;;;;;3.08;2.88;;;9.80;86.50;;;10.73;41.37;98937.91;5227089;28;20240;-65
2023/03/28 10:38:36;;;;;;;4.75;3.20;;;9.70;87.40;;;10.58;42.61;98927.44;5231883;28;20235;-64
2023/03/28 10:41:11;;;;;;;4.32;3.17;;;9.80;88.90;;;10.62;43.51;98928.56;5224868;28;20280;-64
2023/03/28 10:43:45;;;;;;;4.18;3.40;;;9.80;90.00;;;10.49;42.56;98933.53;5228567;28;20660;-65
2023/03/28 10:46:24;;;;;;;4.03;3.05;;;9.60;88.80;;;10.28;42.34;98935.38;5231133;28;20201;-63
2023/03/28 10:49:02;;;;;;;4.43;2.92;;;9.50;88.90;;;10.21;43.77;98930.53;5229997;28;20197;-63
2023/03/28 10:51:38;;;;;;;4.00;3.13;;;9.30;89.50;;;10.29;43.29;98926.94;5228510;28;20192;-63
2023/03/28 10:54:26;;;;;;;3.55;2.75;;;9.40;89.60;;;10.77;41.37;98927.13;5233574;28;20613;-63
2023/03/28 10:57:05;;;;;;;4.93;3.20;;;9.80;87.20;;;10.68;42.15;98929.00;5228138;28;20220;-66
2023/03/28 10:59:47;;;;;;;3.45;3.00;;;9.80;86.90;;;10.69;41.55;98930.78;5237362;28;20228;-63
2023/03/28 11:03:06;;;;;;;3.72;3.03;;;9.90;87.70;;;10.78;39.95;98926.34;5230269;28;20201;-65
2023/03/28 11:05:50;;;;;;;4.55;3.03;;;10.10;85.20;;;10.76;42.22;98925.34;5232255;28;20224;-65
2023/03/28 11:08:54;;;;;;;3.33;2.85;;;10.10;86.80;;;10.54;42.49;98925.44;5228788;28;20205;-65
2023/03/28 11:11:43;;;;;;;4.38;2.92;;;10.00;86.40;;;10.49;39.72;98915.63;5238025;28;20263;-64